Time;durP1;ratioP1;P1;durP2;ratioP2;P2;SDS_P1;SDS_P2;PMS_P1;PMS_P2;Temp;Humidity;BMP_temperature;BMP_pressure;BME280_temperature;BME280_humidity;BME280_pressure;Samples;Min_cycle;Max_cycle;Signal;HPM_P1;HPM_P2
2023/08/19 00:00:48;;;;;;;28.58;23.15;;;;;;;17.20;100.00;101735.41;4984188;28;20267;-45
2023/08/19 00:03:13;;;;;;;24.88;21.40;;;;;;;17.19;100.00;101724.66;4989692;28;20181;-46
2023/08/19 00:05:39;;;;;;;27.42;21.98;;;;;;;17.17;100.00;101721.16;4982793;28;20305;-46
2023/08/19 00:08:05;;;;;;;27.98;22.73;;;;;;;17.19;100.00;101713.84;4980998;28;20730;-46
2023/08/19 00:10:30;;;;;;;27.45;22.08;;;;;;;17.08;100.00;101720.66;4989117;28;20210;-45
2023/08/19 00:12:56;;;;;;;29.42;22.70;;;;;;;17.09;100.00;101711.56;4981570;28;20193;-46
2023/08/19 00:15:21;;;;;;;25.08;20.20;;;;;;;17.13;100.00;101709.59;4982857;28;20197;-47
2023/08/19 00:17:47;;;;;;;22.80;20.27;;;;;;;17.19;100.00;101712.00;4982850;28;20191;-46
2023/08/19 00:20:12;;;;;;;30.48;23.38;;;;;;;17.12;100.00;101715.09;4980246;28;20257;-48
2023/08/19 00:22:38;;;;;;;26.65;21.98;;;;;;;17.14;100.00;101703.22;4982129;28;20672;-46
2023/08/19 00:25:04;;;;;;;25.60;20.58;;;;;;;17.18;100.00;101707.50;4983005;28;20185;-45
2023/08/19 00:27:30;;;;;;;26.77;21.90;;;;;;;17.13;100.00;101703.31;4980014;28;20194;-47
2023/08/19 00:29:55;;;;;;;26.20;21.08;;;;;;;17.16;100.00;101714.84;4984014;28;20316;-48
2023/08/19 00:32:21;;;;;;;26.55;21.35;;;;;;;17.15;100.00;101704.97;4982332;28;20186;-47
2023/08/19 00:34:47;;;;;;;28.27;21.95;;;;;;;17.12;100.00;101717.78;4985351;28;20547;-47
2023/08/19 00:37:13;;;;;;;30.38;23.50;;;;;;;17.08;100.00;101708.97;4979570;28;20186;-48
2023/08/19 00:39:38;;;;;;;30.10;22.23;;;;;;;17.10;100.00;101707.06;4989261;28;20211;-46
2023/08/19 00:42:06;;;;;;;29.27;23.52;;;;;;;17.07;100.00;101708.06;4977364;28;20191;-45
2023/08/19 00:44:34;;;;;;;30.63;23.48;;;;;;;17.13;100.00;101696.06;4988490;28;20214;-45
2023/08/19 00:47:01;;;;;;;31.90;24.80;;;;;;;17.08;100.00;101698.13;4984617;28;20363;-46
2023/08/19 00:49:28;;;;;;;25.30;22.27;;;;;;;17.23;100.00;101709.97;4980504;28;20202;-46
2023/08/19 00:51:55;;;;;;;29.58;23.73;;;;;;;17.18;100.00;101712.06;4981890;28;20330;-45
2023/08/19 00:54:20;;;;;;;30.77;24.83;;;;;;;17.12;100.00;101698.84;4977922;28;20174;-47
2023/08/19 00:56:46;;;;;;;27.15;22.73;;;;;;;17.29;100.00;101694.31;4987588;28;20555;-46
2023/08/19 00:59:12;;;;;;;32.35;25.92;;;;;;;17.13;100.00;101693.34;4985606;28;20231;-45
2023/08/19 01:01:37;;;;;;;31.88;24.75;;;;;;;17.18;100.00;101696.69;4981944;28;20177;-47
2023/08/19 01:04:03;;;;;;;39.22;25.75;;;;;;;17.17;100.00;101707.63;4979381;28;20205;-46
2023/08/19 01:07:05;;;;;;;31.60;25.67;;;;;;;17.16;100.00;101701.31;4980623;28;20186;-46
2023/08/19 01:09:47;;;;;;;33.85;25.52;;;;;;;17.16;100.00;101690.47;4982890;28;20217;-46
2023/08/19 01:12:28;;;;;;;30.58;24.73;;;;;;;17.22;100.00;101703.69;4976860;28;20213;-46
2023/08/19 01:15:13;;;;;;;31.90;25.73;;;;;;;17.14;100.00;101696.94;4975593;28;20658;-47
2023/08/19 01:17:40;;;;;;;34.42;25.50;;;;;;;17.20;100.00;101697.47;4983962;28;20683;-45
2023/08/19 01:20:09;;;;;;;32.63;25.08;;;;;;;17.16;100.00;101692.31;4980720;28;20217;-46
2023/08/19 01:22:52;;;;;;;30.25;24.80;;;;;;;17.21;100.00;101695.69;4982432;28;20221;-45
2023/08/19 01:25:19;;;;;;;37.65;26.45;;;;;;;17.17;100.00;101707.63;4979894;28;20207;-45
2023/08/19 01:27:45;;;;;;;32.65;25.15;;;;;;;17.14;100.00;101692.38;4985477;28;20177;-47
2023/08/19 01:30:11;;;;;;;30.67;25.55;;;;;;;17.16;100.00;101701.31;4978849;28;20189;-46
2023/08/19 01:32:38;;;;;;;35.20;25.63;;;;;;;17.12;100.00;101697.03;4981987;28;20221;-45
2023/08/19 01:35:05;;;;;;;26.90;22.88;;;;;;;17.08;100.00;101690.88;4984622;28;20621;-47
2023/08/19 01:37:37;;;;;;;29.27;24.02;;;;;;;17.04;100.00;101686.59;4982549;28;20193;-47
2023/08/19 01:40:08;;;;;;;36.65;25.17;;;;;;;17.02;100.00;101688.50;4984415;28;20271;-47
2023/08/19 01:42:35;;;;;;;29.02;24.45;;;;;;;17.04;100.00;101696.53;4981224;28;20196;-45
2023/08/19 01:45:02;;;;;;;27.98;22.13;;;;;;;17.12;100.00;101688.00;4979411;28;20273;-46
2023/08/19 01:47:28;;;;;;;29.73;23.88;;;;;;;17.08;100.00;101690.00;4979078;28;20194;-47
2023/08/19 01:49:53;;;;;;;25.80;22.17;;;;;;;17.16;100.00;101698.59;4976701;28;20216;-47
2023/08/19 01:52:19;;;;;;;28.30;24.20;;;;;;;17.09;100.00;101691.75;4978086;28;20680;-47
2023/08/19 01:54:45;;;;;;;30.90;24.85;;;;;;;17.05;100.00;101687.44;4986126;28;20184;-48
2023/08/19 01:57:11;;;;;;;33.10;24.35;;;;;;;16.98;100.00;101684.19;4987605;28;20192;-47
2023/08/19 01:59:36;;;;;;;32.40;25.70;;;;;;;17.10;100.00;101698.94;4979995;28;20200;-48
2023/08/19 02:02:02;;;;;;;32.45;24.70;;;;;;;17.09;100.00;101681.78;4986029;28;20182;-45
2023/08/19 02:04:28;;;;;;;30.27;24.40;;;;;;;17.13;100.00;101674.41;4978219;28;20219;-47
2023/08/19 02:06:54;;;;;;;27.80;22.98;;;;;;;17.08;100.00;101677.34;4977828;28;20747;-47
2023/08/19 02:09:19;;;;;;;30.98;24.40;;;;;;;17.05;100.00;101682.03;4978783;28;20208;-45
2023/08/19 02:11:45;;;;;;;32.60;25.60;;;;;;;17.04;100.00;101673.03;4976705;28;20739;-46
2023/08/19 02:14:11;;;;;;;40.38;27.52;;;;;;;17.04;100.00;101674.88;4979677;28;20252;-46
2023/08/19 02:16:36;;;;;;;34.60;26.85;;;;;;;17.04;100.00;101669.47;4978143;28;20275;-47
2023/08/19 02:19:04;;;;;;;39.10;27.58;;;;;;;17.04;100.00;101670.34;4981614;28;20730;-45
2023/08/19 02:21:29;;;;;;;36.08;28.85;;;;;;;17.08;100.00;101680.06;4978786;28;20710;-47
2023/08/19 02:23:55;;;;;;;38.30;28.55;;;;;;;17.02;100.00;101668.66;4992136;28;20289;-45
2023/08/19 02:26:20;;;;;;;36.00;28.13;;;;;;;17.02;100.00;101674.94;4978538;28;20235;-46
2023/08/19 02:28:46;;;;;;;36.63;28.98;;;;;;;17.06;100.00;101681.97;4979644;28;20217;-46
2023/08/19 02:31:11;;;;;;;42.58;28.83;;;;;;;17.02;100.00;101691.19;4986591;28;20631;-47
2023/08/19 02:33:38;;;;;;;42.30;29.83;;;;;;;17.01;100.00;101672.31;4975724;28;20189;-45
2023/08/19 02:36:07;;;;;;;38.92;28.10;;;;;;;17.05;100.00;101682.03;4981184;28;20181;-45
2023/08/19 02:38:33;;;;;;;35.08;27.40;;;;;;;17.07;100.00;101689.13;4976685;28;20217;-46
2023/08/19 02:40:59;;;;;;;36.95;27.17;;;;;;;17.08;100.00;101687.31;4978399;28;20272;-48
2023/08/19 02:43:24;;;;;;;38.70;28.98;;;;;;;17.05;100.00;101685.63;4977881;28;20673;-47
2023/08/19 02:45:50;;;;;;;38.30;29.10;;;;;;;17.05;100.00;101682.03;4968828;28;20223;-45
2023/08/19 02:48:16;;;;;;;34.72;25.67;;;;;;;17.10;100.00;101693.53;4975319;28;20285;-48
2023/08/19 02:50:42;;;;;;;35.80;27.58;;;;;;;17.15;100.00;101696.84;4973742;28;20228;-46
2023/08/19 02:53:08;;;;;;;35.22;26.95;;;;;;;17.18;100.00;101701.22;4978459;28;20607;-47
2023/08/19 02:55:33;;;;;;;33.00;27.00;;;;;;;17.16;100.00;101698.59;4982148;28;20185;-45
2023/08/19 02:58:00;;;;;;;32.55;26.20;;;;;;;17.13;100.00;101690.66;4978116;28;20181;-46
2023/08/19 03:00:26;;;;;;;28.50;23.10;;;;;;;17.20;100.00;101689.34;4980141;28;20186;-46
2023/08/19 03:02:52;;;;;;;33.00;25.58;;;;;;;17.14;100.00;101696.94;4979039;28;20247;-46
2023/08/19 03:05:18;;;;;;;33.63;25.92;;;;;;;17.14;100.00;101692.38;4984250;28;20208;-46
2023/08/19 03:07:43;;;;;;;29.30;23.40;;;;;;;17.15;100.00;101696.00;4986247;28;20663;-46
2023/08/19 03:10:09;;;;;;;29.30;24.30;;;;;;;17.17;100.00;101704.91;4984931;28;20279;-46
2023/08/19 03:12:34;;;;;;;30.85;24.83;;;;;;;17.19;100.00;101692.16;4978507;28;20181;-46
2023/08/19 03:15:00;;;;;;;28.50;23.48;;;;;;;17.18;100.00;101698.53;4980378;28;20178;-46
2023/08/19 03:17:26;;;;;;;26.23;22.17;;;;;;;17.22;100.00;101692.88;4978446;28;20213;-46
2023/08/19 03:19:51;;;;;;;28.48;23.67;;;;;;;17.13;100.00;101703.31;4976943;28;20202;-47
2023/08/19 03:22:17;;;;;;;30.48;24.50;;;;;;;17.13;100.00;101701.47;4982938;28;20173;-46
2023/08/19 03:24:43;;;;;;;26.23;22.80;;;;;;;17.21;100.00;101703.81;4980506;28;20240;-48
2023/08/19 03:27:09;;;;;;;23.05;20.27;;;;;;;17.29;100.00;101707.84;4986476;28;20872;-46
2023/08/19 03:29:35;;;;;;;26.38;22.38;;;;;;;17.26;100.00;101699.00;4980909;28;20664;-44
2023/08/19 03:32:01;;;;;;;28.40;23.33;;;;;;;17.20;100.00;101694.78;4983972;28;20309;-45
2023/08/19 03:34:27;;;;;;;27.83;22.63;;;;;;;17.18;100.00;101709.34;4988575;28;20193;-45
2023/08/19 03:36:53;;;;;;;28.95;22.40;;;;;;;17.16;100.00;101698.59;4989121;28;20189;-48
2023/08/19 03:39:19;;;;;;;27.73;22.88;;;;;;;17.18;100.00;101701.22;4990103;28;20589;-45
2023/08/19 03:41:44;;;;;;;26.35;21.55;;;;;;;17.21;100.00;101693.84;4984016;28;20191;-47
2023/08/19 03:44:10;;;;;;;28.75;24.10;;;;;;;17.19;100.00;101686.75;4986718;28;20663;-46
2023/08/19 03:46:35;;;;;;;23.83;21.30;;;;;;;17.30;100.00;101693.34;4985883;28;20184;-46
2023/08/19 03:49:01;;;;;;;30.80;23.30;;;;;;;17.18;100.00;101691.28;4977842;28;20216;-45
2023/08/19 03:51:27;;;;;;;28.33;23.10;;;;;;;17.21;100.00;101693.84;4981493;28;20234;-46
2023/08/19 03:53:52;;;;;;;30.20;23.95;;;;;;;17.19;100.00;101679.50;4989216;28;20185;-46
2023/08/19 03:56:18;;;;;;;33.13;25.67;;;;;;;17.20;100.00;101691.19;4984265;28;20192;-46
2023/08/19 03:58:46;;;;;;;28.27;23.77;;;;;;;17.18;100.00;101688.56;4982121;28;20622;-44
2023/08/19 04:01:13;;;;;;;26.90;23.00;;;;;;;17.26;100.00;101694.47;4980595;28;20182;-46
2023/08/19 04:03:40;;;;;;;24.90;20.95;;;;;;;17.23;100.00;101691.94;4983272;28;20189;-46
2023/08/19 04:06:05;;;;;;;31.35;24.55;;;;;;;17.21;100.00;101687.56;4986760;28;20192;-45
2023/08/19 04:08:31;;;;;;;37.47;25.73;;;;;;;17.19;100.00;101695.75;4982222;28;20213;-46
2023/08/19 04:11:07;;;;;;;30.25;24.75;;;;;;;17.23;100.00;101696.44;4984042;28;20210;-45
2023/08/19 04:13:33;;;;;;;27.13;22.65;;;;;;;17.28;100.00;101697.09;4983461;28;20188;-47
2023/08/19 04:16:06;;;;;;;30.77;23.83;;;;;;;17.24;100.00;101707.19;4985764;28;20178;-44
2023/08/19 04:18:33;;;;;;;33.35;25.67;;;;;;;17.18;100.00;101693.09;4986293;28;20236;-45
2023/08/19 04:21:04;;;;;;;29.27;23.55;;;;;;;17.24;100.00;101692.78;4987529;28;20174;-46
2023/08/19 04:23:30;;;;;;;32.17;25.15;;;;;;;17.18;100.00;101690.41;4977982;28;20186;-46
2023/08/19 04:25:55;;;;;;;33.75;25.08;;;;;;;17.21;100.00;101693.84;4996481;28;20242;-46
2023/08/19 04:28:21;;;;;;;33.97;26.92;;;;;;;17.16;100.00;101693.19;4986532;28;20569;-45
2023/08/19 04:30:48;;;;;;;28.60;23.90;;;;;;;17.22;100.00;101692.88;4986989;28;20205;-46
2023/08/19 04:33:15;;;;;;;34.00;26.88;;;;;;;17.17;100.00;101694.94;4978687;28;20276;-45
2023/08/19 04:35:42;;;;;;;38.35;26.70;;;;;;;17.20;100.00;101697.47;4985460;28;20182;-45
2023/08/19 04:38:07;;;;;;;31.05;25.80;;;;;;;17.20;100.00;101688.50;4980974;28;20620;-47
2023/08/19 04:40:34;;;;;;;28.13;22.60;;;;;;;17.24;100.00;101684.66;4988591;28;20272;-46
2023/08/19 04:43:00;;;;;;;27.77;23.42;;;;;;;17.29;100.00;101688.00;4983229;28;20178;-46
2023/08/19 04:45:26;;;;;;;35.65;26.17;;;;;;;17.25;100.00;101705.38;4977797;28;20261;-46
2023/08/19 04:47:53;;;;;;;35.38;26.63;;;;;;;17.27;100.00;101688.09;4990366;28;20244;-46
2023/08/19 04:50:21;;;;;;;38.10;26.17;;;;;;;17.23;100.00;101694.63;4987801;28;20181;-44
2023/08/19 04:52:48;;;;;;;34.45;26.35;;;;;;;17.27;100.00;101696.22;4982240;28;20193;-44
2023/08/19 04:55:14;;;;;;;32.42;25.73;;;;;;;17.35;100.00;101698.50;4983122;28;20182;-46
2023/08/19 04:57:42;;;;;;;34.65;27.17;;;;;;;17.29;100.00;101696.13;5017539;23;20226;-45
2023/08/19 05:00:12;;;;;;;36.33;26.88;;;;;;;17.33;100.00;101705.84;4967376;28;20234;-46
2023/08/19 05:02:38;;;;;;;30.55;25.75;;;;;;;17.46;100.00;101703.38;4951915;28;20563;-45
2023/08/19 05:05:05;;;;;;;37.70;29.02;;;;;;;17.37;100.00;101706.56;4960246;28;20623;-45
2023/08/19 05:07:31;;;;;;;31.50;26.67;;;;;;;17.41;100.00;101711.75;4983253;28;20217;-46
2023/08/19 05:09:57;;;;;;;43.03;29.90;;;;;;;17.37;100.00;101710.16;4937920;28;20551;-43
2023/08/19 05:12:25;;;;;;;32.55;27.02;;;;;;;17.46;100.00;101704.22;4953914;28;20229;-46
2023/08/19 05:14:51;;;;;;;40.20;29.58;;;;;;;17.44;100.00;101710.69;4922476;28;20675;-45
2023/08/19 05:17:18;;;;;;;26.10;21.85;;;;;;;17.54;100.00;101706.56;4953614;28;20195;-46
2023/08/19 05:19:44;;;;;;;37.85;29.67;;;;;;;17.48;100.00;101713.16;4951901;28;20240;-41
2023/08/19 05:22:09;;;;;;;34.42;28.85;;;;;;;17.49;100.00;101717.63;4971122;28;20182;-46
2023/08/19 05:24:35;;;;;;;29.20;24.83;;;;;;;17.58;100.00;101724.41;4953452;28;20186;-44
2023/08/19 05:27:01;;;;;;;36.90;27.58;;;;;;;17.57;100.00;101721.75;4961293;28;20285;-44
2023/08/19 05:29:27;;;;;;;29.58;25.10;;;;;;;17.62;100.00;101711.53;4970969;28;20682;-45
2023/08/19 05:31:52;;;;;;;32.13;27.38;;;;;;;17.64;100.00;101718.63;4970996;28;20264;-43
2023/08/19 05:34:18;;;;;;;30.23;26.83;;;;;;;17.67;100.00;101709.47;4964995;28;20186;-44
2023/08/19 05:36:43;;;;;;;28.40;25.35;;;;;;;17.74;100.00;101710.91;4978842;28;20690;-43
2023/08/19 05:39:09;;;;;;;28.25;24.60;;;;;;;17.73;100.00;101705.53;4978650;28;20621;-43
2023/08/19 05:41:35;;;;;;;29.02;26.02;;;;;;;17.79;100.00;101708.78;4970784;28;20547;-46
2023/08/19 05:44:00;;;;;;;27.17;24.30;;;;;;;17.84;100.00;101705.88;4978769;28;20186;-44
2023/08/19 05:46:26;;;;;;;31.95;26.85;;;;;;;17.83;100.00;101717.69;4971257;28;20304;-42
2023/08/19 05:48:52;;;;;;;28.92;25.48;;;;;;;17.80;100.00;101704.25;4971212;28;20201;-43
2023/08/19 05:51:17;;;;;;;29.58;25.20;;;;;;;17.87;100.00;101700.28;4971152;28;20209;-45
2023/08/19 05:53:43;;;;;;;28.42;25.33;;;;;;;17.94;100.00;101709.84;4971181;28;20182;-45
2023/08/19 05:56:09;;;;;;;28.73;25.73;;;;;;;17.96;100.00;101705.19;4970267;28;20170;-44
2023/08/19 05:58:35;;;;;;;28.33;25.42;;;;;;;18.03;100.00;101708.44;4970553;28;20668;-42
2023/08/19 06:01:03;;;;;;;28.88;25.80;;;;;;;18.04;100.00;101694.81;4978386;28;20664;-44
2023/08/19 06:03:28;;;;;;;27.95;25.08;;;;;;;18.07;100.00;101694.63;4974192;28;20190;-46
2023/08/19 06:05:54;;;;;;;26.17;23.55;;;;;;;18.22;100.00;101687.47;4970206;28;20204;-44
2023/08/19 06:08:20;;;;;;;25.25;22.67;;;;;;;18.25;100.00;101690.00;4970339;28;20243;-45
2023/08/19 06:10:45;;;;;;;23.35;21.13;;;;;;;18.27;100.00;101684.50;4970220;28;20230;-45
2023/08/19 06:13:11;;;;;;;24.35;21.95;;;;;;;18.31;100.00;101691.50;4971053;28;20181;-43
2023/08/19 06:15:37;;;;;;;24.35;21.80;;;;;;;18.33;100.00;101692.28;4972832;28;20178;-45
2023/08/19 06:18:03;;;;;;;24.52;21.88;;;;;;;18.40;100.00;101687.38;4968177;28;20209;-46
2023/08/19 06:20:28;;;;;;;25.30;22.90;;;;;;;18.49;100.00;101682.28;4968606;28;20217;-45
2023/08/19 06:22:54;;;;;;;23.92;21.70;;;;;;;18.56;100.00;101671.94;4959105;28;20608;-45
2023/08/19 06:25:19;;;;;;;23.02;20.92;;;;;;;18.58;100.00;101672.72;4974834;28;20275;-45
2023/08/19 06:27:45;;;;;;;22.35;20.08;;;;;;;18.64;100.00;101677.81;4971888;28;20189;-44
2023/08/19 06:30:12;;;;;;;21.60;19.45;;;;;;;18.79;100.00;101676.06;4967668;28;20699;-43
2023/08/19 06:32:38;;;;;;;21.45;19.17;;;;;;;18.99;100.00;101677.59;4946093;28;20218;-44
2023/08/19 06:35:04;;;;;;;22.25;20.10;;;;;;;18.93;100.00;101672.53;4969788;28;20256;-44
2023/08/19 06:37:40;;;;;;;20.83;18.75;;;;;;;18.97;100.00;101675.94;4969701;28;20664;-46
2023/08/19 06:40:08;;;;;;;19.63;17.83;;;;;;;19.09;100.00;101662.50;4957195;28;20197;-43
2023/08/19 06:42:35;;;;;;;18.95;17.25;;;;;;;19.16;100.00;101667.56;4980544;28;20558;-45
2023/08/19 06:45:04;;;;;;;17.90;16.33;;;;;;;19.30;100.00;101652.13;4952122;28;20190;-43
2023/08/19 06:47:34;;;;;;;18.27;16.52;;;;;;;19.44;100.00;101651.31;4969237;28;20182;-44
2023/08/19 06:49:59;;;;;;;18.23;16.63;;;;;;;19.61;100.00;101642.06;4968288;28;20190;-45
2023/08/19 06:52:25;;;;;;;17.30;15.70;;;;;;;19.94;100.00;101635.47;4969096;28;20300;-44
2023/08/19 06:54:51;;;;;;;16.95;15.38;;;;;;;20.28;100.00;101634.13;4968109;28;20178;-44
2023/08/19 06:57:25;;;;;;;16.52;14.93;;;;;;;20.02;100.00;101629.53;4974304;28;20187;-44
2023/08/19 06:59:58;;;;;;;14.70;13.43;;;;;;;20.00;100.00;101623.31;4973362;28;20623;-42
2023/08/19 07:02:28;;;;;;;15.55;14.15;;;;;;;19.87;100.00;101615.09;4983495;28;20173;-46
2023/08/19 07:04:59;;;;;;;15.05;13.85;;;;;;;20.33;100.00;101607.50;4979398;28;20255;-45
2023/08/19 07:07:27;;;;;;;13.82;12.63;;;;;;;20.59;100.00;101602.16;4968143;28;20182;-44
2023/08/19 07:09:53;;;;;;;14.20;12.65;;;;;;;20.82;100.00;101597.88;4969274;28;20216;-45
2023/08/19 07:12:20;;;;;;;13.43;12.13;;;;;;;20.93;100.00;101584.38;4951932;28;20655;-45
2023/08/19 07:14:46;;;;;;;14.02;12.82;;;;;;;21.04;100.00;101590.94;4969376;28;20261;-44
2023/08/19 07:17:14;;;;;;;13.32;12.00;;;;;;;21.14;100.00;101595.63;4976700;28;20257;-45
2023/08/19 07:19:40;;;;;;;12.48;11.38;;;;;;;21.42;100.00;101590.09;4969382;28;20579;-44
2023/08/19 07:22:06;;;;;;;12.68;11.57;;;;;;;21.51;100.00;101587.53;4976753;28;20180;-45
2023/08/19 07:24:32;;;;;;;11.27;10.07;;;;;;;21.64;100.00;101581.22;4967293;28;20264;-45
2023/08/19 07:27:03;;;;;;;11.60;10.50;;;;;;;21.78;100.00;101592.00;4970798;28;20281;-44
2023/08/19 07:29:30;;;;;;;11.27;10.18;;;;;;;21.73;100.00;101589.56;4974467;28;20214;-43
2023/08/19 07:31:56;;;;;;;10.98;10.07;;;;;;;21.99;100.00;101584.06;4968987;28;20197;-43
2023/08/19 07:34:22;;;;;;;9.88;9.07;;;;;;;22.47;100.00;101581.38;4969192;28;20190;-44
2023/08/19 07:36:49;;;;;;;10.18;9.18;;;;;;;22.48;100.00;101585.88;4968975;28;20190;-45
2023/08/19 07:39:14;;;;;;;9.75;9.00;;;;;;;22.31;100.00;101575.34;4969030;28;20248;-45
2023/08/19 07:41:40;;;;;;;9.75;8.90;;;;;;;22.47;100.00;101569.59;4968785;28;20173;-44
2023/08/19 07:44:06;;;;;;;10.07;9.27;;;;;;;22.67;100.00;101573.50;4976892;28;20227;-42
2023/08/19 07:46:32;;;;;;;11.60;10.40;;;;;;;22.36;100.00;101570.41;4969106;28;20723;-45
2023/08/19 07:48:58;;;;;;;11.18;10.27;;;;;;;22.41;100.00;101569.09;4968793;28;20206;-45
2023/08/19 07:51:23;;;;;;;9.32;8.63;;;;;;;22.52;100.00;101561.91;4968543;28;20216;-45
2023/08/19 07:53:49;;;;;;;9.52;8.75;;;;;;;22.83;100.00;101560.41;4968664;28;20217;-42
2023/08/19 07:56:16;;;;;;;10.07;9.27;;;;;;;22.94;100.00;101552.22;4968966;28;20205;-45
2023/08/19 07:58:42;;;;;;;9.35;8.65;;;;;;;23.17;100.00;101555.03;4968907;28;20205;-46
2023/08/19 08:01:10;;;;;;;8.90;8.15;;;;;;;23.29;100.00;101540.38;4969007;28;20255;-45
2023/08/19 08:03:38;;;;;;;9.40;8.60;;;;;;;23.23;100.00;101528.06;4968587;28;20186;-45
2023/08/19 08:06:04;;;;;;;9.23;8.32;;;;;;;23.27;100.00;101522.34;4967658;28;20196;-45
2023/08/19 08:08:29;;;;;;;9.50;8.80;;;;;;;23.36;100.00;101519.72;4968001;28;20261;-45
2023/08/19 08:10:55;;;;;;;9.27;8.50;;;;;;;23.29;100.00;101518.50;4968260;28;20216;-43
2023/08/19 08:13:21;;;;;;;8.65;7.93;;;;;;;23.53;100.00;101517.50;4968583;28;20302;-44
2023/08/19 08:15:47;;;;;;;10.23;9.32;;;;;;;23.52;100.00;101513.88;4968795;28;20170;-44
2023/08/19 08:18:13;;;;;;;9.55;8.57;;;;;;;23.82;100.00;101512.38;4978155;28;20211;-45
2023/08/19 08:20:39;;;;;;;8.70;8.00;;;;;;;24.10;100.00;101510.06;4976640;28;20236;-43
2023/08/19 08:23:04;;;;;;;9.57;8.88;;;;;;;24.00;100.00;101518.16;4971950;28;20197;-44
2023/08/19 08:25:30;;;;;;;8.82;7.97;;;;;;;24.05;100.00;101507.69;4972351;28;20196;-46
2023/08/19 08:27:56;;;;;;;9.20;8.48;;;;;;;24.22;100.00;101506.25;4972194;28;20314;-46
2023/08/19 08:30:21;;;;;;;9.60;8.70;;;;;;;24.33;100.00;101502.59;4971835;28;20662;-43
2023/08/19 08:32:47;;;;;;;7.95;7.25;;;;;;;24.74;99.54;101498.19;4972337;28;20200;-46
2023/08/19 08:35:13;;;;;;;8.10;7.30;;;;;;;24.59;98.33;101503.97;4971926;28;20170;-45
2023/08/19 08:37:38;;;;;;;8.95;8.25;;;;;;;24.51;95.92;101497.44;4971834;28;20180;-44
2023/08/19 08:40:04;;;;;;;10.77;9.85;;;;;;;24.58;94.51;101496.78;4971900;28;20201;-43
2023/08/19 08:42:30;;;;;;;9.57;8.63;;;;;;;24.68;93.29;101508.66;4971793;28;20693;-42
2023/08/19 08:44:58;;;;;;;10.77;9.98;;;;;;;24.23;94.15;101508.88;4978665;28;20261;-43
2023/08/19 08:47:25;;;;;;;10.48;9.48;;;;;;;24.55;93.82;101515.34;4986856;28;20177;-45
2023/08/19 08:49:52;;;;;;;11.23;10.32;;;;;;;24.52;93.78;101502.78;4971118;28;20209;-44
2023/08/19 08:52:20;;;;;;;10.23;9.38;;;;;;;24.61;93.47;101501.13;4964594;28;20702;-46
2023/08/19 08:54:51;;;;;;;12.30;11.07;;;;;;;24.49;93.69;101496.69;4971523;28;20209;-44
2023/08/19 08:57:17;;;;;;;12.48;11.48;;;;;;;24.16;94.33;101502.19;4963590;28;20190;-46
2023/08/19 08:59:43;;;;;;;12.60;11.40;;;;;;;24.10;95.00;101501.84;4978083;28;20215;-45
2023/08/19 09:02:11;;;;;;;12.60;11.60;;;;;;;24.16;95.21;101518.63;4971573;28;20200;-45
2023/08/19 09:04:38;;;;;;;11.85;10.82;;;;;;;24.42;96.91;101518.22;4970791;28;20177;-44
2023/08/19 09:07:10;;;;;;;12.25;11.25;;;;;;;24.55;95.81;101512.59;4971237;28;20296;-46
2023/08/19 09:09:38;;;;;;;12.80;11.68;;;;;;;24.50;94.23;101512.16;4971386;28;20300;-45
2023/08/19 09:12:10;;;;;;;12.70;11.63;;;;;;;24.95;93.44;101495.41;4972643;28;20198;-45
2023/08/19 09:14:40;;;;;;;12.93;11.75;;;;;;;24.77;92.41;101492.41;4977105;28;20546;-46
2023/08/19 09:17:06;;;;;;;13.43;12.32;;;;;;;24.94;92.01;101494.53;4973036;28;20367;-46
2023/08/19 09:19:32;;;;;;;12.50;11.38;;;;;;;25.33;91.85;101493.88;4985278;28;20810;-44
2023/08/19 09:22:07;;;;;;;12.77;11.77;;;;;;;25.28;90.92;101503.41;4971147;28;20551;-46
2023/08/19 09:24:35;;;;;;;12.10;11.05;;;;;;;25.20;90.54;101491.38;4971288;28;20271;-47
2023/08/19 09:27:01;;;;;;;12.77;11.57;;;;;;;24.91;89.48;101494.81;4970934;28;20205;-45
2023/08/19 09:29:27;;;;;;;12.93;11.77;;;;;;;24.46;90.70;101490.44;4970807;28;20660;-45
2023/08/19 09:31:53;;;;;;;13.00;11.90;;;;;;;24.87;92.59;101498.81;4969831;28;20204;-45
2023/08/19 09:34:19;;;;;;;12.65;11.48;;;;;;;24.94;90.90;101482.72;4978871;28;20632;-46
2023/08/19 09:36:45;;;;;;;12.55;11.45;;;;;;;25.20;89.80;101473.03;4971505;28;20514;-44
2023/08/19 09:39:10;;;;;;;12.68;11.50;;;;;;;25.62;88.09;101467.38;4973474;28;20205;-43
2023/08/19 09:41:38;;;;;;;12.25;11.15;;;;;;;25.76;87.24;101463.38;4985715;28;20174;-46
2023/08/19 09:44:12;;;;;;;12.50;11.35;;;;;;;25.84;86.00;101452.53;4971457;28;20169;-46
2023/08/19 09:46:37;;;;;;;12.18;11.18;;;;;;;25.83;86.35;101448.06;4971648;28;20229;-44
2023/08/19 09:49:03;;;;;;;12.65;10.70;;;;;;;25.82;84.90;101450.94;4971457;28;20306;-46
2023/08/19 09:51:29;;;;;;;11.18;10.18;;;;;;;26.17;84.21;101444.91;4961200;28;20677;-48
2023/08/19 09:53:55;;;;;;;11.73;10.63;;;;;;;25.63;83.92;101441.69;4960491;28;20567;-47
2023/08/19 09:56:22;;;;;;;10.95;9.95;;;;;;;25.92;85.37;101440.03;4963639;28;20186;-48
2023/08/19 09:58:53;;;;;;;10.18;9.40;;;;;;;26.03;84.94;101443.47;4962341;28;20567;-45
2023/08/19 10:01:21;;;;;;;11.48;10.48;;;;;;;26.12;84.45;101441.75;4966253;28;20185;-48
2023/08/19 10:03:47;;;;;;;10.60;9.60;;;;;;;26.30;83.79;101439.13;4958949;28;20190;-45
2023/08/19 10:06:16;;;;;;;10.90;10.05;;;;;;;26.00;83.68;101441.03;4962491;28;20197;-46
2023/08/19 10:08:44;;;;;;;10.30;9.40;;;;;;;26.03;83.63;101437.13;4944033;28;20209;-48
2023/08/19 10:11:12;;;;;;;10.32;9.32;;;;;;;26.11;83.04;101431.78;4961626;28;20293;-46
2023/08/19 10:13:37;;;;;;;11.32;10.30;;;;;;;26.23;82.32;101427.00;4960005;28;20645;-47
2023/08/19 10:16:04;;;;;;;10.70;9.80;;;;;;;26.05;82.31;101424.13;4964672;28;20185;-45
2023/08/19 10:18:35;;;;;;;10.52;9.55;;;;;;;26.25;82.44;101423.09;4964701;28;20321;-47
2023/08/19 10:21:05;;;;;;;11.70;10.65;;;;;;;26.04;81.62;101417.78;4964479;28;20178;-44
2023/08/19 10:23:33;;;;;;;10.07;9.07;;;;;;;26.45;81.35;101428.56;4965916;28;20181;-46
2023/08/19 10:25:58;;;;;;;10.25;9.40;;;;;;;26.23;81.37;101430.59;4962406;28;20277;-46
2023/08/19 10:28:27;;;;;;;9.75;9.05;;;;;;;26.08;81.66;101426.56;4963763;28;20344;-50
2023/08/19 10:31:08;;;;;;;10.30;9.43;;;;;;;26.40;81.84;101425.38;4956817;28;20660;-47
2023/08/19 10:33:37;;;;;;;9.95;9.18;;;;;;;26.50;80.14;101423.47;4954734;28;20197;-47
2023/08/19 10:36:04;;;;;;;10.32;9.52;;;;;;;26.57;79.96;101424.66;4957635;28;20186;-46
2023/08/19 10:38:55;;;;;;;10.13;9.32;;;;;;;26.68;80.13;101409.88;4964175;28;20194;-46
2023/08/19 10:41:33;;;;;;;10.15;9.25;;;;;;;26.77;80.44;101411.72;4967484;28;20193;-47
2023/08/19 10:44:02;;;;;;;10.05;9.15;;;;;;;26.86;79.56;101413.56;4960480;28;20190;-45
2023/08/19 10:46:34;;;;;;;9.70;8.90;;;;;;;27.13;77.76;101401.72;4965538;28;20186;-49
2023/08/19 10:49:15;;;;;;;10.07;9.20;;;;;;;27.21;77.87;101406.47;4962887;28;20211;-44
2023/08/19 10:51:51;;;;;;;10.40;9.40;;;;;;;27.18;77.24;101394.88;4958429;28;20209;-46
2023/08/19 10:54:35;;;;;;;9.52;8.75;;;;;;;27.31;77.43;101400.91;4960411;28;20656;-45
2023/08/19 10:57:14;;;;;;;9.48;8.55;;;;;;;27.31;76.40;101390.78;4962622;28;20342;-45
2023/08/19 10:59:45;;;;;;;9.48;8.63;;;;;;;27.36;75.87;101371.06;4945613;28;20225;-45
2023/08/19 11:02:12;;;;;;;9.15;8.45;;;;;;;27.45;76.45;101386.63;4965714;28;20244;-46
2023/08/19 11:04:47;;;;;;;9.30;8.50;;;;;;;27.55;75.26;101381.06;4976099;23;20633;-43
2023/08/19 11:07:12;;;;;;;9.45;8.65;;;;;;;27.36;75.00;101381.22;4971785;28;20188;-42